createdAt,value
2024-04-12T00:02:16.979Z,57421.51
2024-04-12T00:04:50.485Z,57421.51
2024-04-12T00:07:28.232Z,57451.16
2024-04-12T00:10:06.852Z,57444.81
2024-04-12T00:12:39.814Z,57421.51
2024-04-12T00:15:12.184Z,57423.63
2024-04-12T00:17:53.817Z,57423.63
2024-04-12T00:20:15.611Z,57421.51
2024-04-12T00:22:46.996Z,57399.27
2024-04-12T00:25:18.623Z,57399.27
2024-04-12T00:27:57.142Z,57452.23
2024-04-12T00:30:29.426Z,57438.46
2024-04-12T00:33:01.408Z,57438.46
2024-04-12T00:35:39.795Z,57429.98
2024-04-12T00:38:14.671Z,57417.27
2024-04-12T00:40:45.399Z,57437.39
2024-04-12T00:43:21.606Z,57437.39
2024-04-12T00:45:53.136Z,57425.75
2024-04-12T00:48:24.220Z,57425.75
2024-04-12T00:50:56.638Z,57445.87
2024-04-12T00:53:29.271Z,57427.87
2024-04-12T00:56:06.619Z,57426.80
2024-04-12T00:58:47.515Z,57434.22
2024-04-12T01:01:17.294Z,57419.39
2024-04-12T01:03:48.957Z,57419.39
2024-04-12T01:06:34.045Z,57437.39
2024-04-12T01:09:05.732Z,57437.39
2024-04-12T01:11:43.504Z,57406.68
2024-04-12T01:14:20.761Z,57411.98
2024-04-12T01:16:51.006Z,57411.98
2024-04-12T01:19:22.377Z,57441.63
2024-04-12T01:21:59.099Z,57421.51
2024-04-12T01:24:37.853Z,57398.21
2024-04-12T01:27:09.963Z,57398.21
2024-04-12T01:29:42.405Z,57373.85
2024-04-12T01:32:24.313Z,57402.45
2024-04-12T01:34:59.632Z,57374.91
2024-04-12T01:37:29.753Z,57377.03
2024-04-12T01:40:00.409Z,57373.85
2024-04-12T01:42:35.307Z,57373.85
2024-04-12T01:45:06.305Z,57380.21
2024-04-12T01:47:44.467Z,57364.32
2024-04-12T01:50:19.081Z,57342.08
2024-04-12T01:52:52.783Z,57365.38
2024-04-12T01:55:28.171Z,57368.55
2024-04-12T01:57:58.390Z,57362.20
2024-04-12T02:00:32.563Z,57362.20
2024-04-12T02:03:05.389Z,57342.08
2024-04-12T02:05:38.518Z,57352.67
2024-04-12T02:08:11.909Z,57348.43
2024-04-12T02:10:47.135Z,57359.03
2024-04-12T02:13:20.082Z,57359.03
2024-04-12T02:15:54.081Z,57336.79
2024-04-12T02:18:26.818Z,57336.79
2024-04-12T02:20:58.621Z,57341.02
2024-04-12T02:23:34.936Z,57357.96
2024-04-12T02:26:05.769Z,57336.79
2024-04-12T02:28:38.197Z,57354.79
2024-04-12T02:31:12.837Z,57337.84
2024-04-12T02:33:42.889Z,57341.02
2024-04-12T02:36:15.239Z,57356.91
2024-04-12T02:38:47.759Z,57361.14
2024-04-12T02:41:22.650Z,57361.14
2024-04-12T02:43:55.121Z,57353.73
2024-04-12T02:46:30.515Z,57323.02
2024-04-12T02:49:00.715Z,57323.02
2024-04-12T02:51:31.454Z,57331.49
2024-04-12T02:54:04.089Z,57309.25
2024-04-12T02:56:35.886Z,57309.25
2024-04-12T02:59:07.745Z,57337.84
2024-04-12T03:01:37.897Z,57300.78
2024-04-12T03:04:08.058Z,57300.78
2024-04-12T03:06:41.973Z,57327.25
2024-04-12T03:09:13.786Z,57327.25
2024-04-12T03:11:43.977Z,57319.84
2024-04-12T03:14:14.132Z,57321.96
2024-04-12T03:16:45.424Z,57297.60
2024-04-12T03:19:16.573Z,57333.61
2024-04-12T03:21:47.574Z,57366.44
2024-04-12T03:24:17.828Z,57366.44
2024-04-12T03:26:48.319Z,57346.32
2024-04-12T03:29:18.730Z,57332.55
2024-04-12T03:31:49.432Z,57313.48
2024-04-12T03:34:19.738Z,57337.84
2024-04-12T03:36:50.405Z,57313.48
2024-04-12T03:39:22.619Z,57310.31
2024-04-12T03:42:00.995Z,57348.43
2024-04-12T03:44:39.328Z,57316.66
2024-04-12T03:47:14.016Z,57316.66
2024-04-12T03:50:01.818Z,57315.61
2024-04-12T03:52:33.847Z,57350.55
2024-04-12T03:55:04.073Z,57350.55
2024-04-12T03:57:34.457Z,57316.66
2024-04-12T04:00:06.554Z,57316.66
2024-04-12T04:02:36.981Z,57303.95
2024-04-12T04:05:09.316Z,57336.79
2024-04-12T04:07:39.519Z,57328.31
2024-04-12T04:10:09.815Z,57317.72
2024-04-12T04:12:40.216Z,57337.84
2024-04-12T04:15:10.296Z,57334.67
2024-04-12T04:17:42.136Z,57323.02
2024-04-12T04:20:12.452Z,57323.02
2024-04-12T04:22:42.589Z,57337.84
2024-04-12T04:25:12.719Z,57330.43
2024-04-12T04:27:42.880Z,57330.43
2024-04-12T04:30:13.390Z,57346.32
2024-04-12T04:32:48.381Z,57346.32
2024-04-12T04:35:18.505Z,57357.96
2024-04-12T04:37:48.658Z,57332.55
2024-04-12T04:40:19.772Z,57293.36
2024-04-12T04:42:50.320Z,57335.73
2024-04-12T04:45:21.116Z,57328.31
2024-04-12T04:47:51.915Z,57362.20
2024-04-12T04:50:22.882Z,57361.14
2024-04-12T04:52:53.182Z,57333.61
2024-04-12T04:55:23.504Z,57333.61
2024-04-12T04:57:53.700Z,57345.26
2024-04-12T05:00:25.345Z,57345.26
2024-04-12T05:02:56.236Z,57318.78
2024-04-12T05:05:27.422Z,57318.78
2024-04-12T05:07:59.804Z,57337.84
2024-04-12T05:10:30.577Z,57362.20
2024-04-12T05:13:00.872Z,57348.43
2024-04-12T05:15:31.339Z,57352.67
2024-04-12T05:18:01.533Z,57372.79
2024-04-12T05:20:34.012Z,57374.91
2024-04-12T05:23:04.357Z,57374.91
2024-04-12T05:25:34.681Z,57367.50
2024-04-12T05:28:05.639Z,57367.50
2024-04-12T05:30:39.064Z,57359.03
2024-04-12T05:33:10.716Z,57329.37
2024-04-12T05:35:42.574Z,57347.38
2024-04-12T05:38:13.277Z,57415.16
2024-04-12T05:40:44.062Z,57364.32
2024-04-12T05:43:14.463Z,57419.39
2024-04-12T05:45:47.861Z,57409.86
2024-04-12T05:48:19.271Z,57388.68
2024-04-12T05:50:51.083Z,57388.68
2024-04-12T05:53:24.751Z,57437.39
2024-04-12T05:55:54.941Z,57445.87
2024-04-12T05:58:41.590Z,57513.65
2024-04-12T06:01:19.462Z,57513.65
2024-04-12T06:03:56.977Z,57514.71
2024-04-12T06:06:30.015Z,57514.71
2024-04-12T06:09:00.544Z,57527.42
2024-04-12T06:11:33.067Z,57585.67
2024-04-12T06:14:03.558Z,57633.34
2024-04-12T06:16:34.122Z,57633.34
2024-04-12T06:19:04.505Z,57642.87
2024-04-12T06:21:34.999Z,57642.87
2024-04-12T06:24:05.463Z,57720.19
2024-04-12T06:26:36.232Z,57720.19
2024-04-12T06:29:08.614Z,57761.49
2024-04-12T06:31:39.087Z,57743.49
2024-04-12T06:34:09.399Z,57743.49
2024-04-12T06:36:39.835Z,57731.84
2024-04-12T06:39:11.666Z,57750.90
2024-04-12T06:41:42.878Z,57742.43
2024-04-12T06:44:16.155Z,57742.43
2024-04-12T06:46:53.648Z,57809.16
2024-04-12T06:49:24.414Z,57801.74
2024-04-12T06:51:59.119Z,57801.74
2024-04-12T06:54:29.423Z,57785.86
2024-04-12T06:57:13.934Z,57785.86
2024-04-12T06:59:45.438Z,57812.34
2024-04-12T07:02:16.327Z,57795.39
2024-04-12T07:04:46.559Z,57862.12
2024-04-12T07:07:17.001Z,57828.22
2024-04-12T07:09:56.108Z,57873.77
2024-04-12T07:12:27.622Z,57873.77
2024-04-12T07:14:58.002Z,57899.19
2024-04-12T07:17:28.242Z,57994.52
2024-04-12T07:19:58.497Z,57972.28
2024-04-12T07:22:29.219Z,57972.28
2024-04-12T07:25:11.696Z,57871.65
2024-04-12T07:27:42.044Z,57920.37
2024-04-12T07:30:13.876Z,57890.72
2024-04-12T07:32:51.988Z,57890.72
2024-04-12T07:35:22.273Z,57889.66
2024-04-12T07:37:59.284Z,57969.10
2024-04-12T07:40:29.391Z,57936.27
2024-04-12T07:43:03.058Z,57936.27
2024-04-12T07:45:33.424Z,57964.86
2024-04-12T07:48:06.567Z,58007.23
2024-04-12T07:50:37.006Z,58007.23
2024-04-12T07:53:09.762Z,57973.34
2024-04-12T07:55:46.332Z,58126.93
2024-04-12T07:58:15.703Z,58025.24
2024-04-12T08:00:45.933Z,58025.24
2024-04-12T08:03:17.730Z,58126.93
2024-04-12T08:05:48.260Z,58126.93
2024-04-12T08:08:18.489Z,58040.07
2024-04-12T08:10:48.851Z,58047.49
2024-04-12T08:13:19.116Z,57933.09
2024-04-12T08:15:49.310Z,57933.09
2024-04-12T08:18:22.455Z,58000.88
2024-04-12T08:20:54.764Z,57977.57
2024-04-12T08:23:24.911Z,57977.57
2024-04-12T08:25:55.098Z,57843.05
2024-04-12T08:28:25.812Z,57959.57
2024-04-12T08:30:57.525Z,57959.57
2024-04-12T08:33:28.056Z,57994.52
2024-04-12T08:35:58.356Z,57870.59
2024-04-12T08:38:28.658Z,57870.59
2024-04-12T08:41:04.648Z,57906.61
2024-04-12T08:43:35.053Z,57921.43
2024-04-12T08:46:11.494Z,57857.88
2024-04-12T08:48:42.950Z,57857.88
2024-04-12T08:51:18.827Z,57954.27
2024-04-12T08:53:53.981Z,58009.36
2024-04-12T08:56:27.444Z,57993.46
2024-04-12T08:58:58.344Z,57993.46
2024-04-12T09:01:30.576Z,57933.09
2024-04-12T09:04:04.804Z,58032.66
2024-04-12T09:06:37.211Z,58032.66
2024-04-12T09:09:09.328Z,58140.71
2024-04-12T09:11:39.520Z,58084.56
2024-04-12T09:14:09.933Z,58084.56
2024-04-12T09:16:40.353Z,58119.52
2024-04-12T09:19:18.532Z,58119.52
2024-04-12T09:21:49.194Z,58257.23
2024-04-12T09:24:19.828Z,58187.32
2024-04-12T09:26:50.796Z,58187.32
2024-04-12T09:29:30.408Z,58084.56
2024-04-12T09:32:02.354Z,58314.44
2024-04-12T09:34:34.457Z,58195.79
2024-04-12T09:37:07.046Z,58208.50
2024-04-12T09:39:39.040Z,58225.45
2024-04-12T09:42:10.732Z,58246.64
2024-04-12T09:44:42.552Z,58246.64
2024-04-12T09:47:15.691Z,58307.02
2024-04-12T09:49:47.588Z,58294.31
2024-04-12T09:52:18.020Z,58284.78
2024-04-12T09:54:48.555Z,58272.06
2024-04-12T09:57:24.070Z,58272.06
2024-04-12T09:59:57.320Z,58380.12
2024-04-12T10:02:29.860Z,58380.12
2024-04-12T10:05:02.271Z,58243.46
2024-04-12T10:07:33.955Z,58305.96
2024-04-12T10:10:06.365Z,58305.96
2024-04-12T10:12:37.472Z,58315.50
2024-04-12T10:15:12.519Z,58418.26
2024-04-12T10:17:45.404Z,58273.12
2024-04-12T10:20:15.967Z,58273.12
2024-04-12T10:22:49.322Z,58417.20
2024-04-12T10:25:22.552Z,58415.08
2024-04-12T10:27:53.598Z,58443.68
2024-04-12T10:30:23.967Z,58443.68
2024-04-12T10:33:11.856Z,58419.32
2024-04-12T10:35:43.480Z,58255.11
2024-04-12T10:38:27.101Z,58255.11
2024-04-12T10:40:51.792Z,58329.27
2024-04-12T10:43:22.253Z,58281.60
2024-04-12T10:45:52.689Z,58352.57
2024-04-12T10:48:24.849Z,58352.57
2024-04-12T10:51:09.534Z,58221.21
2024-04-12T10:53:44.584Z,58172.48
2024-04-12T10:56:15.626Z,58246.64
2024-04-12T10:58:46.823Z,58246.64
2024-04-12T11:01:17.544Z,58299.61
2024-04-12T11:03:54.328Z,58299.61
2024-04-12T11:06:28.898Z,58433.09
2024-04-12T11:09:02.393Z,58333.51
2024-04-12T11:11:37.911Z,58333.51
2024-04-12T11:14:08.565Z,58365.29
2024-04-12T11:16:50.493Z,58437.32
2024-04-12T11:19:27.880Z,58433.09
2024-04-12T11:22:03.987Z,58433.09
2024-04-12T11:24:34.437Z,58354.69
2024-04-12T11:27:07.734Z,58354.69
2024-04-12T11:29:40.637Z,58455.34
2024-04-12T11:32:11.037Z,58459.57
2024-04-12T11:34:43.957Z,58459.57
2024-04-12T11:37:14.732Z,58400.25
2024-04-12T11:39:49.504Z,58262.53
2024-04-12T11:42:21.905Z,58262.53
2024-04-12T11:44:52.888Z,58278.42
2024-04-12T11:47:23.305Z,58278.42
2024-04-12T11:49:54.127Z,58531.61
2024-04-12T11:52:26.589Z,58531.61
2024-04-12T11:54:56.976Z,58497.71
2024-04-12T11:57:29.310Z,58445.80
2024-04-12T12:00:02.410Z,58445.80
2024-04-12T12:02:34.825Z,58399.19
2024-04-12T12:05:07.539Z,58399.19
2024-04-12T12:07:37.898Z,58407.66
2024-04-12T12:10:08.417Z,58437.32
2024-04-12T12:12:39.136Z,58464.87
2024-04-12T12:15:09.909Z,58464.87
2024-04-12T12:17:40.396Z,58334.57
2024-04-12T12:20:10.957Z,58277.36
2024-04-12T12:22:41.310Z,58277.36
2024-04-12T12:25:11.684Z,58174.61
2024-04-12T12:27:42.087Z,58174.61
2024-04-12T12:30:15.494Z,58303.84
2024-04-12T12:32:47.157Z,58178.84
2024-04-12T12:35:17.844Z,58195.79
2024-04-12T12:37:49.974Z,58195.79
2024-04-12T12:40:20.370Z,58137.53
2024-04-12T12:42:51.667Z,58363.17
2024-04-12T12:45:22.467Z,58363.17
2024-04-12T12:47:52.815Z,58358.93
2024-04-12T12:50:24.786Z,58398.13
2024-04-12T12:52:56.977Z,58305.96
2024-04-12T12:55:27.434Z,58371.64
2024-04-12T12:57:58.392Z,58365.29
2024-04-12T13:00:28.694Z,58365.29
2024-04-12T13:03:02.490Z,58317.62
2024-04-12T13:05:32.990Z,58317.62
2024-04-12T13:08:03.928Z,58297.49
2024-04-12T13:10:35.812Z,58365.29
2024-04-12T13:13:07.975Z,58170.37
2024-04-12T13:15:42.231Z,58239.22
2024-04-12T13:18:12.583Z,58239.22
2024-04-12T13:20:46.209Z,58218.04
2024-04-12T13:23:16.543Z,58402.37
2024-04-12T13:25:47.816Z,58402.37
2024-04-12T13:28:24.747Z,58312.32
2024-04-12T13:30:55.313Z,58312.32
2024-04-12T13:33:25.734Z,58230.75
2024-04-12T13:36:02.100Z,58322.91
2024-04-12T13:38:32.886Z,58308.08
2024-04-12T13:41:03.318Z,58237.11
2024-04-12T13:43:33.892Z,58237.11
2024-04-12T13:46:04.525Z,58339.86
2024-04-12T13:48:36.067Z,58339.86
2024-04-12T13:51:06.555Z,58329.27
2024-04-12T13:53:36.830Z,58386.48
2024-04-12T13:56:07.234Z,58291.13
2024-04-12T13:58:39.250Z,58243.46
2024-04-12T14:01:09.764Z,58243.46
2024-04-12T14:03:40.207Z,58258.29
2024-04-12T14:06:10.873Z,58254.05
2024-04-12T14:08:41.447Z,58254.05
2024-04-12T14:11:11.900Z,58227.57
2024-04-12T14:13:42.236Z,58133.29
2024-04-12T14:16:14.356Z,58133.29
2024-04-12T14:18:46.594Z,58153.42
2024-04-12T14:21:18.796Z,58153.42
2024-04-12T14:23:51.303Z,58078.21
2024-04-12T14:26:21.691Z,58089.86
2024-04-12T14:28:52.053Z,58089.86
2024-04-12T14:31:22.383Z,58123.76
2024-04-12T14:33:56.019Z,58123.76
2024-04-12T14:36:26.647Z,58254.05
2024-04-12T14:38:57.078Z,58051.73
2024-04-12T14:41:27.682Z,58082.45
2024-04-12T14:43:58.055Z,57975.46
2024-04-12T14:46:28.397Z,58079.27
2024-04-12T14:49:00.238Z,57979.70
2024-04-12T14:51:34.189Z,57829.29
2024-04-12T14:54:04.984Z,57829.29
2024-04-12T14:56:40.151Z,57769.97
2024-04-12T14:59:07.664Z,57704.30
2024-04-12T15:01:38.733Z,57745.61
2024-04-12T15:04:09.198Z,57739.25
2024-04-12T15:06:40.392Z,57739.25
2024-04-12T15:09:12.099Z,57699.00
2024-04-12T15:11:43.234Z,57748.79
2024-04-12T15:14:15.063Z,57702.18
2024-04-12T15:16:49.925Z,57702.18
2024-04-12T15:19:20.602Z,57694.77
2024-04-12T15:21:50.968Z,57691.59
2024-04-12T15:24:21.693Z,57669.34
2024-04-12T15:26:52.076Z,57710.65
2024-04-12T15:29:22.431Z,57634.39
2024-04-12T15:31:52.868Z,57634.39
2024-04-12T15:34:23.736Z,57682.05
2024-04-12T15:36:54.296Z,57585.67
2024-04-12T15:39:24.779Z,57631.22
2024-04-12T15:41:55.089Z,57631.22
2024-04-12T15:44:25.516Z,57642.87
2024-04-12T15:46:56.022Z,57638.63
2024-04-12T15:49:26.311Z,57565.55
2024-04-12T15:51:57.467Z,57565.55
2024-04-12T15:54:31.124Z,57631.22
2024-04-12T15:57:01.684Z,57631.22
2024-04-12T15:59:32.061Z,57639.69
2024-04-12T16:02:02.492Z,57621.68
2024-04-12T16:04:33.320Z,57615.33
2024-04-12T16:07:03.912Z,57594.14
2024-04-12T16:09:40.284Z,57594.14
2024-04-12T16:12:13.387Z,57581.44
2024-04-12T16:14:44.324Z,57618.50
2024-04-12T16:17:14.828Z,57570.85
2024-04-12T16:19:45.158Z,57556.02
2024-04-12T16:22:16.311Z,57536.95
2024-04-12T16:24:47.119Z,57594.14
2024-04-12T16:27:19.068Z,57570.85
2024-04-12T16:29:51.281Z,57570.85
2024-04-12T16:32:21.839Z,57513.65
2024-04-12T16:34:59.054Z,57526.36
2024-04-12T16:37:29.565Z,57532.72
2024-04-12T16:39:59.826Z,57532.72
2024-04-12T16:42:32.827Z,57527.42
2024-04-12T16:45:03.153Z,57546.48
2024-04-12T16:47:34.212Z,57541.19
2024-04-12T16:50:05.531Z,57518.95
2024-04-12T16:52:45.880Z,57518.95
2024-04-12T16:55:14.999Z,57532.72
2024-04-12T16:57:46.888Z,57549.66
2024-04-12T17:00:27.867Z,57507.30
2024-04-12T17:03:02.660Z,57507.30
2024-04-12T17:05:33.865Z,57484.00
2024-04-12T17:08:05.869Z,57532.72
2024-04-12T17:10:36.372Z,57509.41
2024-04-12T17:13:06.869Z,57490.35
2024-04-12T17:15:37.683Z,57499.88
2024-04-12T17:18:12.412Z,57524.25
2024-04-12T17:23:53.217Z,57476.58
2024-04-12T17:28:05.011Z,57476.58
2024-04-12T17:29:49.758Z,57511.54
2024-04-12T17:32:29.025Z,57490.35
2024-04-12T17:35:00.958Z,57482.94
2024-04-12T17:37:32.164Z,57500.94
2024-04-12T17:40:09.035Z,57500.94
2024-04-12T17:42:57.505Z,57462.82
2024-04-12T17:45:27.756Z,57465.99
2024-04-12T17:47:58.100Z,57460.70
2024-04-12T17:50:28.247Z,57461.76
2024-04-12T17:53:17.928Z,57464.93
2024-04-12T17:55:54.522Z,57391.86
2024-04-12T17:58:23.103Z,57391.86
2024-04-12T18:01:08.428Z,57480.82
2024-04-12T18:04:23.730Z,57464.93
2024-04-12T18:09:18.253Z,57444.81
2024-04-12T18:11:56.265Z,57452.23
2024-04-12T18:15:28.523Z,57450.11
2024-04-12T18:17:10.838Z,57457.52
2024-04-12T18:19:41.820Z,57440.57
2024-04-12T18:22:13.678Z,57440.57
2024-04-12T18:24:45.683Z,57431.04
2024-04-12T18:27:38.306Z,57431.04
2024-04-12T18:30:09.818Z,57427.87
2024-04-12T18:32:43.622Z,57405.62
2024-04-12T18:37:52.287Z,57434.22
2024-04-12T18:40:25.578Z,57401.39
2024-04-12T18:43:06.088Z,57401.39
2024-04-12T18:46:02.662Z,57417.27
2024-04-12T18:48:19.980Z,57399.27
2024-04-12T18:50:51.663Z,57406.68
2024-04-12T18:53:22.161Z,57423.63
2024-04-12T18:56:01.631Z,57359.03
2024-04-12T18:58:32.733Z,57359.03
2024-04-12T19:01:03.360Z,57407.74
2024-04-12T19:03:33.850Z,57392.91
2024-04-12T19:06:09.469Z,57388.68
2024-04-12T19:08:41.226Z,57374.91
2024-04-12T19:11:12.550Z,57404.57
2024-04-12T19:13:42.938Z,57386.56
2024-04-12T19:16:14.519Z,57386.56
2024-04-12T19:18:45.493Z,57364.32
2024-04-12T19:21:18.292Z,57380.21
2024-04-12T19:23:48.672Z,57395.03
2024-04-12T19:26:18.842Z,57395.03
2024-04-12T19:28:49.287Z,57395.03
2024-04-12T19:31:19.490Z,57395.03
2024-04-12T19:33:52.504Z,57418.33
2024-04-12T19:36:24.484Z,57418.33
2024-04-12T19:38:54.709Z,57383.38
2024-04-12T19:41:25.046Z,57366.44
2024-04-12T19:43:55.694Z,57366.44
2024-04-12T19:46:29.057Z,57364.32
2024-04-12T19:49:00.772Z,57383.38
2024-04-12T19:51:31.128Z,57375.97
2024-04-12T19:54:02.433Z,57360.08
2024-04-12T19:56:33.202Z,57360.08
2024-04-12T19:59:03.421Z,57373.85
2024-04-12T20:01:33.945Z,57363.26
2024-04-12T20:04:05.828Z,57361.14
2024-04-12T20:06:37.493Z,57361.14
2024-04-12T20:09:07.975Z,57390.80
2024-04-12T20:11:38.351Z,57354.79
2024-04-12T20:14:09.068Z,57354.79
2024-04-12T20:16:39.771Z,57346.32
2024-04-12T20:19:10.060Z,57346.32
2024-04-12T20:21:43.490Z,57353.73
2024-04-12T20:24:13.812Z,57317.72
2024-04-12T20:26:44.074Z,57317.72
2024-04-12T20:29:16.535Z,57349.49
2024-04-12T20:31:46.784Z,57349.49
2024-04-12T20:34:16.973Z,57359.03
2024-04-12T20:36:47.542Z,57359.03
2024-04-12T20:39:21.380Z,57359.03
2024-04-12T20:41:53.531Z,57367.50
2024-04-12T20:44:44.652Z,57333.61
2024-04-12T20:47:18.470Z,57352.67
2024-04-12T20:49:56.285Z,57354.79
2024-04-12T20:52:24.109Z,57332.55
2024-04-12T20:54:54.513Z,57332.55
2024-04-12T20:57:24.824Z,57306.07
2024-04-12T20:59:55.093Z,57306.07
2024-04-12T21:02:25.307Z,57319.84
2024-04-12T21:04:55.635Z,57334.67
2024-04-12T21:07:27.528Z,57345.26
2024-04-12T21:09:57.994Z,57310.31
2024-04-12T21:12:28.385Z,57299.72
2024-04-12T21:14:58.899Z,57324.07
2024-04-12T21:17:28.995Z,57346.32
2024-04-12T21:19:59.646Z,57307.13
2024-04-12T21:22:29.825Z,57307.13
2024-04-12T21:24:59.911Z,57332.55
2024-04-12T21:27:30.585Z,57332.55
2024-04-12T21:30:01.118Z,57316.66
2024-04-12T21:32:31.568Z,57335.73
2024-04-12T21:35:01.683Z,57319.84
2024-04-12T21:37:32.368Z,57327.25
2024-04-12T21:40:02.691Z,57318.78
2024-04-12T21:42:33.147Z,57336.79
2024-04-12T21:45:03.477Z,57327.25
2024-04-12T21:47:33.808Z,57307.13
2024-04-12T21:50:05.263Z,57302.89
2024-04-12T21:52:35.681Z,57323.02
2024-04-12T21:55:06.407Z,57297.60
2024-04-12T21:57:37.902Z,57317.72
2024-04-12T22:00:08.720Z,57307.13
2024-04-12T22:02:39.744Z,57342.08
2024-04-12T22:05:10.058Z,57312.43
2024-04-12T22:07:43.447Z,57329.37
2024-04-12T22:10:16.403Z,57306.07
2024-04-12T22:12:46.708Z,57301.84
2024-04-12T22:15:16.940Z,57301.84
2024-04-12T22:17:47.259Z,57331.49
2024-04-12T22:20:17.613Z,57331.49
2024-04-12T22:22:48.796Z,57303.95
2024-04-12T22:25:19.020Z,57303.95
2024-04-12T22:27:49.322Z,57281.71
2024-04-12T22:30:19.551Z,57282.77
2024-04-12T22:32:49.823Z,57282.77
2024-04-12T22:35:20.160Z,57316.66
2024-04-12T22:37:50.639Z,57302.89
2024-04-12T22:40:22.193Z,57321.96
2024-04-12T22:42:52.482Z,57294.42
2024-04-12T22:45:22.697Z,57261.59
2024-04-12T22:47:53.009Z,57292.30
2024-04-12T22:50:23.454Z,57297.60
2024-04-12T22:52:53.591Z,57297.60
2024-04-12T22:55:23.925Z,57297.60
2024-04-12T22:57:56.379Z,57293.36
2024-04-12T23:00:26.590Z,57265.83
2024-04-12T23:02:56.800Z,57288.07
2024-04-12T23:05:27.328Z,57294.42
2024-04-12T23:07:57.616Z,57297.60
2024-04-12T23:10:29.245Z,57297.60
2024-04-12T23:12:59.392Z,57308.19
2024-04-12T23:15:33.152Z,57271.13
2024-04-12T23:18:03.478Z,57261.59
2024-04-12T23:20:33.992Z,57261.59
2024-04-12T23:23:06.901Z,57278.54
2024-04-12T23:25:38.521Z,57272.18
2024-04-12T23:28:11.902Z,57278.54
2024-04-12T23:30:44.275Z,57270.06
2024-04-12T23:33:18.647Z,57247.82
2024-04-12T23:35:48.717Z,57284.89
2024-04-12T23:38:23.528Z,57267.95
2024-04-12T23:40:53.515Z,57291.25
2024-04-12T23:43:23.758Z,57271.13
2024-04-12T23:45:53.881Z,57275.36
2024-04-12T23:48:24.371Z,57243.59
2024-04-12T23:50:54.492Z,57236.18
2024-04-12T23:53:24.789Z,57236.18
2024-04-12T23:55:54.989Z,57266.89
2024-04-12T23:58:27.172Z,57248.88
